Terminal Aerodrome Forecast
Issued by NWS

Home | Current Version | Previous Version | Graphics & Text | Print | Product List | Glossary On
Versions: 1 2 3 4 5 6 7 8 9 10 11 12 13 14 15 16 17 18 19
296
FTUS43 KUNR 191731
TAFGCC
TAF
KGCC 191731Z 1918/2018 12012KT P6SM -RA BKN020 OVC040
     FM192000 15008KT 5SM -RA BKN010 OVC020
     FM200600 VRB05KT P6SM BKN015 OVC040
     FM201300 16006KT P6SM BKN025=

USA.gov is the U.S. government's official web portal to all federal, state and local government web resources and services.